sensor_id;sensor_type;location;lat;lon;timestamp;pressure;altitude;pressure_sealevel;temperature;humidity
19811;BME280;10065;49.632;8.346;2023-01-26T00:01:26;101362.13;;;4.86;66.76
19811;BME280;10065;49.632;8.346;2023-01-26T00:03:54;101360.44;;;4.85;66.75
19811;BME280;10065;49.632;8.346;2023-01-26T00:06:23;101362.91;;;4.88;66.55
19811;BME280;10065;49.632;8.346;2023-01-26T00:09:04;101359.50;;;4.86;66.50
19811;BME280;10065;49.632;8.346;2023-01-26T00:11:33;101355.94;;;4.87;66.82
19811;BME280;10065;49.632;8.346;2023-01-26T00:14:01;101354.25;;;4.86;66.68
19811;BME280;10065;49.632;8.346;2023-01-26T00:16:29;101349.00;;;4.86;66.68
19811;BME280;10065;49.632;8.346;2023-01-26T00:18:56;101347.28;;;4.85;66.54
19811;BME280;10065;49.632;8.346;2023-01-26T00:21:24;101340.34;;;4.84;66.59
19811;BME280;10065;49.632;8.346;2023-01-26T00:23:52;101344.66;;;4.85;66.50
19811;BME280;10065;49.632;8.346;2023-01-26T00:26:22;101344.66;;;4.85;66.27
19811;BME280;10065;49.632;8.346;2023-01-26T00:28:52;101342.03;;;4.85;66.27
19811;BME280;10065;49.632;8.346;2023-01-26T00:31:21;101340.53;;;4.81;66.31
19811;BME280;10065;49.632;8.346;2023-01-26T00:33:49;101336.97;;;4.82;66.20
19811;BME280;10065;49.632;8.346;2023-01-26T00:36:17;101324.88;;;4.80;65.91
19811;BME280;10065;49.632;8.346;2023-01-26T00:38:45;101328.34;;;4.80;66.05
19811;BME280;10065;49.632;8.346;2023-01-26T00:41:13;101326.47;;;4.82;66.01
19811;BME280;10065;49.632;8.346;2023-01-26T00:43:56;101330.03;;;4.81;66.26
19811;BME280;10065;49.632;8.346;2023-01-26T00:46:24;101316.97;;;4.80;66.17
19811;BME280;10065;49.632;8.346;2023-01-26T00:48:52;101319.69;;;4.78;65.89
19811;BME280;10065;49.632;8.346;2023-01-26T00:51:20;101320.53;;;4.79;66.04
19811;BME280;10065;49.632;8.346;2023-01-26T00:53:48;101315.97;;;4.82;65.81
19811;BME280;10065;49.632;8.346;2023-01-26T00:56:16;101312.56;;;4.80;65.94
19811;BME280;10065;49.632;8.346;2023-01-26T00:58:43;101312.56;;;4.80;65.89
19811;BME280;10065;49.632;8.346;2023-01-26T01:01:12;101321.31;;;4.81;65.96
19811;BME280;10065;49.632;8.346;2023-01-26T01:03:40;101322.91;;;4.83;65.93
19811;BME280;10065;49.632;8.346;2023-01-26T01:06:08;101323.44;;;4.74;66.10
19811;BME280;10065;49.632;8.346;2023-01-26T01:08:36;101315.75;;;4.71;66.12
19811;BME280;10065;49.632;8.346;2023-01-26T01:11:05;101318.19;;;4.74;66.10
19811;BME280;10065;49.632;8.346;2023-01-26T01:13:34;101324.38;;;4.73;66.33
19811;BME280;10065;49.632;8.346;2023-01-26T01:16:04;101316.31;;;4.76;66.24
19811;BME280;10065;49.632;8.346;2023-01-26T01:18:34;101315.19;;;4.80;65.96
19811;BME280;10065;49.632;8.346;2023-01-26T01:21:05;101318.59;;;4.82;65.86
19811;BME280;10065;49.632;8.346;2023-01-26T01:23:32;101317.66;;;4.83;65.98
19811;BME280;10065;49.632;8.346;2023-01-26T01:26:01;101317.66;;;4.83;66.04
19811;BME280;10065;49.632;8.346;2023-01-26T01:28:29;101321.84;;;4.86;65.55
19811;BME280;10065;49.632;8.346;2023-01-26T01:30:56;101323.63;;;4.85;65.65
19811;BME280;10065;49.632;8.346;2023-01-26T01:33:24;101323.06;;;4.80;65.47
19811;BME280;10065;49.632;8.346;2023-01-26T01:35:58;101312.75;;;4.77;65.58
19811;BME280;10065;49.632;8.346;2023-01-26T01:38:26;101316.50;;;4.73;65.98
19811;BME280;10065;49.632;8.346;2023-01-26T01:40:55;101317.22;;;4.75;65.79
19811;BME280;10065;49.632;8.346;2023-01-26T01:43:23;101319.97;;;4.74;65.93
19811;BME280;10065;49.632;8.346;2023-01-26T01:45:52;101312.94;;;4.74;66.00
19811;BME280;10065;49.632;8.346;2023-01-26T01:48:24;101306.00;;;4.73;66.04
19811;BME280;10065;49.632;8.346;2023-01-26T01:50:58;101306.00;;;4.73;65.84
19811;BME280;10065;49.632;8.346;2023-01-26T01:53:28;101307.78;;;4.73;65.93
19811;BME280;10065;49.632;8.346;2023-01-26T01:56:00;101313.88;;;4.73;66.24
19811;BME280;10065;49.632;8.346;2023-01-26T01:58:31;101316.66;;;4.70;66.32
19811;BME280;10065;49.632;8.346;2023-01-26T02:01:00;101315.75;;;4.71;66.26
19811;BME280;10065;49.632;8.346;2023-01-26T02:03:28;101306.91;;;4.72;66.18
19811;BME280;10065;49.632;8.346;2023-01-26T02:06:00;101311.91;;;4.77;65.46
19811;BME280;10065;49.632;8.346;2023-01-26T02:08:32;101311.03;;;4.76;64.72
19811;BME280;10065;49.632;8.346;2023-01-26T02:11:04;101302.50;;;4.73;64.64
19811;BME280;10065;49.632;8.346;2023-01-26T02:13:33;101307.84;;;4.71;64.70
19811;BME280;10065;49.632;8.346;2023-01-26T02:16:02;101304.63;;;4.66;64.86
19811;BME280;10065;49.632;8.346;2023-01-26T02:18:30;101306.31;;;4.67;65.05
19811;BME280;10065;49.632;8.346;2023-01-26T02:21:01;101301.00;;;4.69;65.42
19811;BME280;10065;49.632;8.346;2023-01-26T02:23:37;101299.22;;;4.69;65.89
19811;BME280;10065;49.632;8.346;2023-01-26T02:26:12;101290.56;;;4.67;66.26
19811;BME280;10065;49.632;8.346;2023-01-26T02:28:41;101290.56;;;4.67;65.88
19811;BME280;10065;49.632;8.346;2023-01-26T02:31:10;101304.63;;;4.66;65.81
19811;BME280;10065;49.632;8.346;2023-01-26T02:33:40;101290.78;;;4.64;65.78
19811;BME280;10065;49.632;8.346;2023-01-26T02:36:10;101287.22;;;4.65;66.14
19811;BME280;10065;49.632;8.346;2023-01-26T02:38:48;101288.13;;;4.64;65.70
19811;BME280;10065;49.632;8.346;2023-01-26T02:41:19;101291.50;;;4.66;66.02
19811;BME280;10065;49.632;8.346;2023-01-26T02:44:02;101286.25;;;4.66;66.08
19811;BME280;10065;49.632;8.346;2023-01-26T02:46:30;101284.59;;;4.65;66.13
19811;BME280;10065;49.632;8.346;2023-01-26T02:48:58;101283.81;;;4.63;66.33
19811;BME280;10065;49.632;8.346;2023-01-26T02:51:43;101282.97;;;4.63;66.98
19811;BME280;10065;49.632;8.346;2023-01-26T02:54:11;101278.56;;;4.63;67.23
19811;BME280;10065;49.632;8.346;2023-01-26T02:57:01;101277.72;;;4.63;67.36
19811;BME280;10065;49.632;8.346;2023-01-26T02:59:27;101277.72;;;4.63;67.46
19811;BME280;10065;49.632;8.346;2023-01-26T03:01:56;101279.88;;;4.56;67.68
19811;BME280;10065;49.632;8.346;2023-01-26T03:04:24;101275.47;;;4.57;67.98
19811;BME280;10065;49.632;8.346;2023-01-26T03:06:52;101262.22;;;4.58;67.99
19811;BME280;10065;49.632;8.346;2023-01-26T03:09:20;101258.72;;;4.58;68.04
19811;BME280;10065;49.632;8.346;2023-01-26T03:11:48;101264.66;;;4.61;68.07
19811;BME280;10065;49.632;8.346;2023-01-26T03:14:17;101255.84;;;4.62;67.76
19811;BME280;10065;49.632;8.346;2023-01-26T03:16:45;101260.19;;;4.63;67.86
19811;BME280;10065;49.632;8.346;2023-01-26T03:19:13;101250.03;;;4.57;68.23
19811;BME280;10065;49.632;8.346;2023-01-26T03:21:59;101255.47;;;4.54;68.60
19811;BME280;10065;49.632;8.346;2023-01-26T03:24:51;101254.63;;;4.53;68.79
19811;BME280;10065;49.632;8.346;2023-01-26T03:27:41;101247.66;;;4.52;68.77
19811;BME280;10065;49.632;8.346;2023-01-26T03:30:12;101237.25;;;4.51;68.72
19811;BME280;10065;49.632;8.346;2023-01-26T03:32:40;101233.13;;;4.47;68.74
19811;BME280;10065;49.632;8.346;2023-01-26T03:35:09;101240.34;;;4.43;68.88
19811;BME280;10065;49.632;8.346;2023-01-26T03:37:40;101232.38;;;4.45;69.36
19811;BME280;10065;49.632;8.346;2023-01-26T03:40:10;101229.44;;;4.49;69.04
19811;BME280;10065;49.632;8.346;2023-01-26T03:42:56;101218.94;;;4.49;69.38
19811;BME280;10065;49.632;8.346;2023-01-26T03:45:43;101212.84;;;4.49;68.77
19811;BME280;10065;49.632;8.346;2023-01-26T03:48:28;101217.38;;;4.47;68.91
19811;BME280;10065;49.632;8.346;2023-01-26T03:51:14;101220.84;;;4.47;69.21
19811;BME280;10065;49.632;8.346;2023-01-26T03:53:59;101214.06;;;4.43;69.51
19811;BME280;10065;49.632;8.346;2023-01-26T03:56:45;101220.16;;;4.44;70.12
19811;BME280;10065;49.632;8.346;2023-01-26T03:59:12;101215.38;;;4.50;69.91
19811;BME280;10065;49.632;8.346;2023-01-26T04:01:44;101208.34;;;4.51;69.49
19811;BME280;10065;49.632;8.346;2023-01-26T04:04:31;101208.19;;;4.54;69.57
19811;BME280;10065;49.632;8.346;2023-01-26T04:07:17;101210.81;;;4.54;69.64
19811;BME280;10065;49.632;8.346;2023-01-26T04:10:03;101217.56;;;4.58;69.39
19811;BME280;10065;49.632;8.346;2023-01-26T04:12:31;101211.28;;;4.61;69.42
19811;BME280;10065;49.632;8.346;2023-01-26T04:14:58;101216.44;;;4.62;69.28
19811;BME280;10065;49.632;8.346;2023-01-26T04:17:45;101205.84;;;4.64;69.48
19811;BME280;10065;49.632;8.346;2023-01-26T04:20:30;101206.88;;;4.61;69.34
19811;BME280;10065;49.632;8.346;2023-01-26T04:23:17;101207.81;;;4.60;69.24
19811;BME280;10065;49.632;8.346;2023-01-26T04:25:45;101208.75;;;4.59;69.11
19811;BME280;10065;49.632;8.346;2023-01-26T04:28:13;101206.03;;;4.61;69.21
19811;BME280;10065;49.632;8.346;2023-01-26T04:30:41;101213.06;;;4.60;69.14
19811;BME280;10065;49.632;8.346;2023-01-26T04:33:10;101207.53;;;4.65;68.80
19811;BME280;10065;49.632;8.346;2023-01-26T04:35:38;101202.19;;;4.66;68.71
19811;BME280;10065;49.632;8.346;2023-01-26T04:38:05;101197.69;;;4.68;68.65
19811;BME280;10065;49.632;8.346;2023-01-26T04:40:33;101192.63;;;4.65;68.80
19811;BME280;10065;49.632;8.346;2023-01-26T04:43:01;101183.91;;;4.65;68.76
19811;BME280;10065;49.632;8.346;2023-01-26T04:45:29;101168.22;;;4.63;68.39
19811;BME280;10065;49.632;8.346;2023-01-26T04:47:59;101182.28;;;4.62;68.20
19811;BME280;10065;49.632;8.346;2023-01-26T04:50:28;101180.59;;;4.61;68.42
19811;BME280;10065;49.632;8.346;2023-01-26T04:52:56;101186.03;;;4.58;68.07
19811;BME280;10065;49.632;8.346;2023-01-26T04:55:24;101180.22;;;4.53;68.13
19811;BME280;10065;49.632;8.346;2023-01-26T04:57:51;101181.06;;;4.53;68.18
19811;BME280;10065;49.632;8.346;2023-01-26T05:00:19;101178.34;;;4.55;68.52
19811;BME280;10065;49.632;8.346;2023-01-26T05:02:47;101173.94;;;4.56;68.38
19811;BME280;10065;49.632;8.346;2023-01-26T05:05:15;101166.91;;;4.56;68.36
19811;BME280;10065;49.632;8.346;2023-01-26T05:07:44;101172.16;;;4.56;68.22
19811;BME280;10065;49.632;8.346;2023-01-26T05:10:15;101174.78;;;4.56;68.23
19811;BME280;10065;49.632;8.346;2023-01-26T05:12:44;101179.13;;;4.57;68.33
19811;BME280;10065;49.632;8.346;2023-01-26T05:15:12;101165.97;;;4.57;68.17
19811;BME280;10065;49.632;8.346;2023-01-26T05:17:40;101156.19;;;4.59;68.12
19811;BME280;10065;49.632;8.346;2023-01-26T05:20:09;101166.72;;;4.59;68.23
19811;BME280;10065;49.632;8.346;2023-01-26T05:22:37;101165.88;;;4.59;68.40
19811;BME280;10065;49.632;8.346;2023-01-26T05:25:07;101160.72;;;4.57;68.25
19811;BME280;10065;49.632;8.346;2023-01-26T05:27:35;101166.91;;;4.56;68.37
19811;BME280;10065;49.632;8.346;2023-01-26T05:30:04;101159.97;;;4.55;68.77
19811;BME280;10065;49.632;8.346;2023-01-26T05:32:31;101164.28;;;4.56;68.63
19811;BME280;10065;49.632;8.346;2023-01-26T05:34:59;101166.91;;;4.56;68.53
19811;BME280;10065;49.632;8.346;2023-01-26T05:37:27;101171.31;;;4.56;68.25
19811;BME280;10065;49.632;8.346;2023-01-26T05:39:55;101173.09;;;4.55;67.79
19811;BME280;10065;49.632;8.346;2023-01-26T05:42:25;101168.97;;;4.51;68.07
19811;BME280;10065;49.632;8.346;2023-01-26T05:44:53;101171.59;;;4.51;68.12
19811;BME280;10065;49.632;8.346;2023-01-26T05:47:21;101168.09;;;4.50;68.02
19811;BME280;10065;49.632;8.346;2023-01-26T05:49:49;101165.56;;;4.49;67.83
19811;BME280;10065;49.632;8.346;2023-01-26T05:52:18;101183.88;;;4.50;67.92
19811;BME280;10065;49.632;8.346;2023-01-26T05:54:47;101168.19;;;4.49;67.74
19811;BME280;10065;49.632;8.346;2023-01-26T05:57:14;101170.66;;;4.52;67.50
19811;BME280;10065;49.632;8.346;2023-01-26T05:59:44;101180.22;;;4.53;67.56
19811;BME280;10065;49.632;8.346;2023-01-26T06:02:12;101170.75;;;4.50;67.84
19811;BME280;10065;49.632;8.346;2023-01-26T06:04:40;101181.44;;;4.47;68.15
19811;BME280;10065;49.632;8.346;2023-01-26T06:07:08;101181.53;;;4.46;68.45
19811;BME280;10065;49.632;8.346;2023-01-26T06:09:36;101183.22;;;4.47;68.57
19811;BME280;10065;49.632;8.346;2023-01-26T06:12:04;101196.44;;;4.45;68.64
19811;BME280;10065;49.632;8.346;2023-01-26T06:14:32;101193.72;;;4.47;68.03
19811;BME280;10065;49.632;8.346;2023-01-26T06:17:01;101199.06;;;4.45;67.81
19811;BME280;10065;49.632;8.346;2023-01-26T06:19:29;101197.28;;;4.46;67.55
19811;BME280;10065;49.632;8.346;2023-01-26T06:21:56;101201.03;;;4.42;67.67
19811;BME280;10065;49.632;8.346;2023-01-26T06:24:24;101208.06;;;4.41;67.78
19811;BME280;10065;49.632;8.346;2023-01-26T06:26:52;101206.34;;;4.40;67.78
19811;BME280;10065;49.632;8.346;2023-01-26T06:29:20;101207.31;;;4.39;68.09
19811;BME280;10065;49.632;8.346;2023-01-26T06:31:47;101206.34;;;4.40;67.96
19811;BME280;10065;49.632;8.346;2023-01-26T06:34:17;101206.34;;;4.40;67.49
19811;BME280;10065;49.632;8.346;2023-01-26T06:36:45;101206.47;;;4.39;67.61
19811;BME280;10065;49.632;8.346;2023-01-26T06:39:13;101218.00;;;4.36;67.75
19811;BME280;10065;49.632;8.346;2023-01-26T06:41:42;101209.19;;;4.37;67.94
19811;BME280;10065;49.632;8.346;2023-01-26T06:44:11;101213.38;;;4.40;67.49
19811;BME280;10065;49.632;8.346;2023-01-26T06:46:39;101222.13;;;4.40;67.02
19811;BME280;10065;49.632;8.346;2023-01-26T06:49:08;101211.53;;;4.42;66.62
19811;BME280;10065;49.632;8.346;2023-01-26T06:51:57;101218.31;;;4.46;66.78
19811;BME280;10065;49.632;8.346;2023-01-26T06:54:26;101218.31;;;4.46;66.24
19811;BME280;10065;49.632;8.346;2023-01-26T06:56:53;101216.53;;;4.46;66.01
19811;BME280;10065;49.632;8.346;2023-01-26T06:59:22;101222.72;;;4.45;65.71
19811;BME280;10065;49.632;8.346;2023-01-26T07:01:50;101209.66;;;4.44;65.87
19811;BME280;10065;49.632;8.346;2023-01-26T07:04:18;101208.81;;;4.43;65.95
19811;BME280;10065;49.632;8.346;2023-01-26T07:06:45;101214.75;;;4.47;65.96
19811;BME280;10065;49.632;8.346;2023-01-26T07:09:14;101211.06;;;4.49;65.72
19811;BME280;10065;49.632;8.346;2023-01-26T07:11:43;101212.69;;;4.52;65.46
19811;BME280;10065;49.632;8.346;2023-01-26T07:14:11;101210.13;;;4.50;64.45
19811;BME280;10065;49.632;8.346;2023-01-26T07:16:38;101210.03;;;4.52;64.25
19811;BME280;10065;49.632;8.346;2023-01-26T07:19:06;101224.13;;;4.51;64.12
19811;BME280;10065;49.632;8.346;2023-01-26T07:21:34;101225.03;;;4.50;63.80
19811;BME280;10065;49.632;8.346;2023-01-26T07:24:04;101222.34;;;4.51;64.13
19811;BME280;10065;49.632;8.346;2023-01-26T07:26:34;101222.25;;;4.53;64.23
19811;BME280;10065;49.632;8.346;2023-01-26T07:29:02;101224.88;;;4.53;64.29
19811;BME280;10065;49.632;8.346;2023-01-26T07:31:30;101224.31;;;4.48;64.58
19811;BME280;10065;49.632;8.346;2023-01-26T07:33:58;101224.56;;;4.43;64.23
19811;BME280;10065;49.632;8.346;2023-01-26T07:36:25;101229.81;;;4.43;64.04
19811;BME280;10065;49.632;8.346;2023-01-26T07:38:53;101237.63;;;4.45;63.76
19811;BME280;10065;49.632;8.346;2023-01-26T07:41:21;101235.00;;;4.45;63.80
19811;BME280;10065;49.632;8.346;2023-01-26T07:43:50;101228.72;;;4.47;63.89
19811;BME280;10065;49.632;8.346;2023-01-26T07:46:18;101234.69;;;4.49;63.56
19811;BME280;10065;49.632;8.346;2023-01-26T07:48:46;101232.28;;;4.46;63.37
19811;BME280;10065;49.632;8.346;2023-01-26T07:51:13;101236.94;;;4.41;63.75
19811;BME280;10065;49.632;8.346;2023-01-26T07:53:41;101235.94;;;4.44;63.58
19811;BME280;10065;49.632;8.346;2023-01-26T07:56:12;101227.88;;;4.47;63.00
19811;BME280;10065;49.632;8.346;2023-01-26T07:58:41;101235.56;;;4.50;62.41
19811;BME280;10065;49.632;8.346;2023-01-26T08:01:12;101236.41;;;4.50;62.11
19811;BME280;10065;49.632;8.346;2023-01-26T08:03:41;101232.94;;;4.50;61.79
19811;BME280;10065;49.632;8.346;2023-01-26T08:06:11;101234.63;;;4.51;61.15
19811;BME280;10065;49.632;8.346;2023-01-26T08:08:41;101228.34;;;4.53;61.04
19811;BME280;10065;49.632;8.346;2023-01-26T08:11:11;101228.25;;;4.55;60.93
19811;BME280;10065;49.632;8.346;2023-01-26T08:13:39;101226.47;;;4.56;60.24
19811;BME280;10065;49.632;8.346;2023-01-26T08:16:08;101224.13;;;4.51;60.39
19811;BME280;10065;49.632;8.346;2023-01-26T08:18:40;101228.34;;;4.53;60.22
19811;BME280;10065;49.632;8.346;2023-01-26T08:21:09;101234.28;;;4.57;60.26
19811;BME280;10065;49.632;8.346;2023-01-26T08:23:37;101229.03;;;4.57;60.63
19811;BME280;10065;49.632;8.346;2023-01-26T08:26:06;101236.63;;;4.62;60.71
19811;BME280;10065;49.632;8.346;2023-01-26T08:28:35;101242.03;;;4.59;60.65
19811;BME280;10065;49.632;8.346;2023-01-26T08:31:03;101243.66;;;4.61;60.43
19811;BME280;10065;49.632;8.346;2023-01-26T08:33:32;101245.50;;;4.59;60.23
19811;BME280;10065;49.632;8.346;2023-01-26T08:36:02;101241.97;;;4.60;60.14
19811;BME280;10065;49.632;8.346;2023-01-26T08:38:31;101252.22;;;4.65;60.24
19811;BME280;10065;49.632;8.346;2023-01-26T08:41:00;101261.28;;;4.59;60.82
19811;BME280;10065;49.632;8.346;2023-01-26T08:43:28;101254.16;;;4.61;60.46
19811;BME280;10065;49.632;8.346;2023-01-26T08:45:56;101254.91;;;4.63;60.56
19811;BME280;10065;49.632;8.346;2023-01-26T08:48:24;101255.69;;;4.65;60.67
19811;BME280;10065;49.632;8.346;2023-01-26T08:50:52;101249.56;;;4.65;60.76
19811;BME280;10065;49.632;8.346;2023-01-26T08:53:22;101244.22;;;4.66;60.77
19811;BME280;10065;49.632;8.346;2023-01-26T08:55:50;101246.75;;;4.68;60.10
19811;BME280;10065;49.632;8.346;2023-01-26T08:58:18;101253.44;;;4.73;60.13
19811;BME280;10065;49.632;8.346;2023-01-26T09:00:47;101246.50;;;4.72;60.03
19811;BME280;10065;49.632;8.346;2023-01-26T09:03:14;101258.59;;;4.75;60.00
19811;BME280;10065;49.632;8.346;2023-01-26T09:05:42;101254.28;;;4.74;59.50
19811;BME280;10065;49.632;8.346;2023-01-26T09:08:10;101260.28;;;4.76;59.51
19811;BME280;10065;49.632;8.346;2023-01-26T09:10:40;101269.00;;;4.76;59.66
19811;BME280;10065;49.632;8.346;2023-01-26T09:13:10;101269.00;;;4.76;59.37
19811;BME280;10065;49.632;8.346;2023-01-26T09:15:38;101269.84;;;4.77;59.43
19811;BME280;10065;49.632;8.346;2023-01-26T09:18:06;101263.75;;;4.76;59.21
19811;BME280;10065;49.632;8.346;2023-01-26T09:20:33;101267.31;;;4.75;59.62
19811;BME280;10065;49.632;8.346;2023-01-26T09:23:01;101263.19;;;4.71;60.05
19811;BME280;10065;49.632;8.346;2023-01-26T09:25:29;101258.59;;;4.75;60.01
19811;BME280;10065;49.632;8.346;2023-01-26T09:28:01;101261.13;;;4.76;59.98
19811;BME280;10065;49.632;8.346;2023-01-26T09:30:32;101258.31;;;4.79;59.91
19811;BME280;10065;49.632;8.346;2023-01-26T09:33:01;101264.97;;;4.85;59.76
19811;BME280;10065;49.632;8.346;2023-01-26T09:35:29;101263.19;;;4.85;59.33
19811;BME280;10065;49.632;8.346;2023-01-26T09:37:57;101261.50;;;4.84;59.42
19811;BME280;10065;49.632;8.346;2023-01-26T09:40:33;101260.66;;;4.84;59.70
19811;BME280;10065;49.632;8.346;2023-01-26T09:43:19;101260.00;;;4.80;59.79
19811;BME280;10065;49.632;8.346;2023-01-26T09:45:55;101259.34;;;4.77;59.76
19811;BME280;10065;49.632;8.346;2023-01-26T09:48:30;101261.13;;;4.76;59.19
19811;BME280;10065;49.632;8.346;2023-01-26T09:51:05;101263.88;;;4.75;59.04
19811;BME280;10065;49.632;8.346;2023-01-26T09:53:40;101255.97;;;4.75;59.23
19811;BME280;10065;49.632;8.346;2023-01-26T09:56:16;101260.38;;;4.74;59.56
19811;BME280;10065;49.632;8.346;2023-01-26T09:58:48;101261.25;;;4.75;59.75
19811;BME280;10065;49.632;8.346;2023-01-26T10:01:23;101258.50;;;4.76;60.00
19811;BME280;10065;49.632;8.346;2023-01-26T10:04:00;101254.94;;;4.77;59.71
19811;BME280;10065;49.632;8.346;2023-01-26T10:06:31;101252.22;;;4.79;59.65
19811;BME280;10065;49.632;8.346;2023-01-26T10:09:06;101256.44;;;4.81;59.86
19811;BME280;10065;49.632;8.346;2023-01-26T10:11:37;101248.47;;;4.83;59.54
19811;BME280;10065;49.632;8.346;2023-01-26T10:14:13;101240.22;;;4.75;59.37
19811;BME280;10065;49.632;8.346;2023-01-26T10:16:42;101248.91;;;4.75;59.28
19811;BME280;10065;49.632;8.346;2023-01-26T10:19:15;101247.97;;;4.76;58.97
19811;BME280;10065;49.632;8.346;2023-01-26T10:21:48;101252.38;;;4.76;58.89
19811;BME280;10065;49.632;8.346;2023-01-26T10:24:20;101250.44;;;4.79;58.93
19811;BME280;10065;49.632;8.346;2023-01-26T10:26:52;101243.66;;;4.75;58.55
19811;BME280;10065;49.632;8.346;2023-01-26T10:29:24;101245.47;;;4.75;58.96
19811;BME280;10065;49.632;8.346;2023-01-26T10:31:52;101245.25;;;4.78;58.85
19811;BME280;10065;49.632;8.346;2023-01-26T10:34:22;101243.22;;;4.83;58.84
19811;BME280;10065;49.632;8.346;2023-01-26T10:36:58;101243.09;;;4.84;58.91
19811;BME280;10065;49.632;8.346;2023-01-26T10:39:28;101234.28;;;4.85;58.53
19811;BME280;10065;49.632;8.346;2023-01-26T10:41:57;101239.38;;;4.88;58.39
19811;BME280;10065;49.632;8.346;2023-01-26T10:44:31;101235.59;;;4.92;57.90
19811;BME280;10065;49.632;8.346;2023-01-26T10:47:03;101237.13;;;4.97;58.03
19811;BME280;10065;49.632;8.346;2023-01-26T10:49:33;101228.97;;;5.01;58.01
19811;BME280;10065;49.632;8.346;2023-01-26T10:52:06;101218.44;;;5.01;57.02
19811;BME280;10065;49.632;8.346;2023-01-26T10:54:34;101220.41;;;4.98;57.40
19811;BME280;10065;49.632;8.346;2023-01-26T10:57:04;101231.09;;;4.95;57.45
19811;BME280;10065;49.632;8.346;2023-01-26T10:59:48;101226.78;;;4.93;57.74
19811;BME280;10065;49.632;8.346;2023-01-26T11:02:24;101227.53;;;4.96;58.04
19811;BME280;10065;49.632;8.346;2023-01-26T11:05:13;101213.47;;;4.97;58.15
19811;BME280;10065;49.632;8.346;2023-01-26T11:07:43;101217.88;;;4.96;58.39
19811;BME280;10065;49.632;8.346;2023-01-26T11:10:23;101215.31;;;4.95;57.88
19811;BME280;10065;49.632;8.346;2023-01-26T11:13:06;101209.44;;;4.91;58.02
19811;BME280;10065;49.632;8.346;2023-01-26T11:15:38;101199.78;;;4.91;57.82
19811;BME280;10065;49.632;8.346;2023-01-26T11:18:15;101200.69;;;4.90;58.22
19811;BME280;10065;49.632;8.346;2023-01-26T11:20:48;101197.50;;;4.85;58.42
19811;BME280;10065;49.632;8.346;2023-01-26T11:23:25;101208.09;;;4.84;58.31
19811;BME280;10065;49.632;8.346;2023-01-26T11:26:08;101201.81;;;4.86;58.45
19811;BME280;10065;49.632;8.346;2023-01-26T11:28:48;101196.38;;;4.89;58.04
19811;BME280;10065;49.632;8.346;2023-01-26T11:31:28;101192.91;;;4.89;58.27
19811;BME280;10065;49.632;8.346;2023-01-26T11:34:08;101191.13;;;4.89;57.88
19811;BME280;10065;49.632;8.346;2023-01-26T11:36:49;101191.13;;;4.89;57.71
19811;BME280;10065;49.632;8.346;2023-01-26T11:39:25;101182.31;;;4.90;58.04
19811;BME280;10065;49.632;8.346;2023-01-26T11:42:06;101184.72;;;4.93;57.70
19811;BME280;10065;49.632;8.346;2023-01-26T11:44:54;101179.69;;;4.90;57.32
19811;BME280;10065;49.632;8.346;2023-01-26T11:47:46;101174.91;;;4.83;57.25
19811;BME280;10065;49.632;8.346;2023-01-26T11:50:26;101173.00;;;4.85;57.44
19811;BME280;10065;49.632;8.346;2023-01-26T11:53:12;101165.88;;;4.87;57.62
19811;BME280;10065;49.632;8.346;2023-01-26T11:58:46;101164.00;;;4.89;58.11
19811;BME280;10065;49.632;8.346;2023-01-26T12:01:21;101160.34;;;4.91;57.34
19811;BME280;10065;49.632;8.346;2023-01-26T12:03:56;101160.78;;;4.84;57.03
19811;BME280;10065;49.632;8.346;2023-01-26T12:06:29;101162.97;;;4.77;57.37
19811;BME280;10065;49.632;8.346;2023-01-26T12:09:01;101162.78;;;4.80;57.59
19811;BME280;10065;49.632;8.346;2023-01-26T12:11:32;101163.72;;;4.79;57.92
19811;BME280;10065;49.632;8.346;2023-01-26T12:14:12;101161.09;;;4.79;57.74
19811;BME280;10065;49.632;8.346;2023-01-26T12:16:48;101163.06;;;4.76;57.55
19811;BME280;10065;49.632;8.346;2023-01-26T12:19:40;101155.00;;;4.79;57.98
19811;BME280;10065;49.632;8.346;2023-01-26T12:22:14;101151.50;;;4.78;58.04
19811;BME280;10065;49.632;8.346;2023-01-26T12:24:50;101143.72;;;4.77;57.74
19811;BME280;10065;49.632;8.346;2023-01-26T12:27:43;101141.00;;;4.78;57.72
19811;BME280;10065;49.632;8.346;2023-01-26T12:30:23;101135.38;;;4.70;57.97
19811;BME280;10065;49.632;8.346;2023-01-26T12:32:52;101137.72;;;4.61;57.55
19811;BME280;10065;49.632;8.346;2023-01-26T12:35:35;101133.31;;;4.61;57.95
19811;BME280;10065;49.632;8.346;2023-01-26T12:38:12;101142.22;;;4.59;57.54
19811;BME280;10065;49.632;8.346;2023-01-26T12:40:52;101128.25;;;4.58;57.27
19811;BME280;10065;49.632;8.346;2023-01-26T12:43:41;101125.34;;;4.63;57.19
19811;BME280;10065;49.632;8.346;2023-01-26T12:46:16;101121.88;;;4.48;57.22
19811;BME280;10065;49.632;8.346;2023-01-26T12:48:47;101121.97;;;4.46;57.89
19811;BME280;10065;49.632;8.346;2023-01-26T12:51:21;101130.13;;;4.56;57.68
19811;BME280;10065;49.632;8.346;2023-01-26T12:53:55;101120.94;;;4.63;57.24
19811;BME280;10065;49.632;8.346;2023-01-26T12:56:27;101114.53;;;4.67;56.99
19811;BME280;10065;49.632;8.346;2023-01-26T12:58:57;101117.94;;;4.69;56.69
19811;BME280;10065;49.632;8.346;2023-01-26T13:01:36;101120.38;;;4.72;56.94
19811;BME280;10065;49.632;8.346;2023-01-26T13:04:08;101110.50;;;4.76;56.61
19811;BME280;10065;49.632;8.346;2023-01-26T13:06:39;101115.66;;;4.77;56.54
19811;BME280;10065;49.632;8.346;2023-01-26T13:09:21;101113.03;;;4.77;56.51
19811;BME280;10065;49.632;8.346;2023-01-26T13:11:51;101105.53;;;4.71;56.52
19811;BME280;10065;49.632;8.346;2023-01-26T13:17:47;101108.84;;;4.75;56.68
19811;BME280;10065;49.632;8.346;2023-01-26T13:23:38;101112.84;;;4.66;56.71
19811;BME280;10065;49.632;8.346;2023-01-26T13:26:24;101105.19;;;4.63;56.52
19811;BME280;10065;49.632;8.346;2023-01-26T13:29:32;101099.06;;;4.63;56.80
19811;BME280;10065;49.632;8.346;2023-01-26T13:35:08;101111.75;;;4.70;56.16
19811;BME280;10065;49.632;8.346;2023-01-26T13:37:45;101110.13;;;4.68;56.03